Time;durP1;ratioP1;P1;durP2;ratioP2;P2;SDS_P1;SDS_P2;PMS_P1;PMS_P2;Temp;Humidity;BMP_temperature;BMP_pressure;BME280_temperature;BME280_humidity;BME280_pressure;Samples;Min_cycle;Max_cycle;Signal;HPM_P1;HPM_P2
2023/11/10 00:05:40;;;;;;;13.70;7.90;;;;;;;7.20;76.94;97771.11;435450;1250;114236;-40
2023/11/10 00:15:44;;;;;;;19.20;8.20;;;;;;;7.22;77.06;97766.83;435361;1253;108083;-41
2023/11/10 00:25:48;;;;;;;12.30;6.50;;;;;;;7.26;77.24;97740.85;435443;1250;97915;-41
2023/11/10 00:35:51;;;;;;;13.50;6.00;;;;;;;7.41;77.23;97734.48;435301;1254;107428;-40
2023/11/10 00:45:54;;;;;;;15.70;6.70;;;;;;;7.56;77.13;97735.05;434797;1255;483689;-41
2023/11/10 00:55:58;;;;;;;15.10;7.30;;;;;;;7.54;77.14;97736.44;435441;1254;112023;-41
2023/11/10 01:06:02;;;;;;;13.00;6.80;;;;;;;7.49;77.18;97729.59;435331;1253;108298;-41
2023/11/10 01:16:07;;;;;;;12.60;7.50;;;;;;;7.50;77.12;97729.50;435367;1254;97980;-40
2023/11/10 01:26:12;;;;;;;14.30;6.90;;;;;;;7.50;77.02;97721.84;435341;1250;107149;-44
2023/11/10 01:56:43;;;;;;;11.80;5.70;;;;;;;7.88;77.53;97694.11;435128;1254;108864;-41
2023/11/10 02:06:47;;;;;;;13.70;7.20;;;;;;;8.12;77.32;97677.70;435394;1254;99246;-41
2023/11/10 02:16:51;;;;;;;13.40;7.20;;;;;;;8.07;77.23;97677.14;436170;1253;108348;-41
2023/11/10 02:26:55;;;;;;;8.70;6.50;;;;;;;7.89;77.18;97672.35;435490;1253;98851;-41
2023/11/10 02:36:59;;;;;;;12.20;6.80;;;;;;;7.83;77.35;97671.08;435570;1253;111263;-40
2023/11/10 02:47:03;;;;;;;12.00;6.40;;;;;;;7.84;77.34;97662.73;435530;1251;107558;-40
2023/11/10 03:07:10;;;;;;;13.30;6.50;;;;;;;7.85;77.88;97651.55;435273;1253;108070;-42
2023/11/10 03:17:14;;;;;;;10.20;6.10;;;;;;;7.98;77.89;97649.42;435627;1253;98283;-41
2023/11/10 03:27:17;;;;;;;10.80;6.20;;;;;;;8.03;77.96;97640.98;435480;1254;111999;-41
2023/11/10 03:37:21;;;;;;;11.40;6.60;;;;;;;8.02;78.21;97628.17;435515;1253;108270;-41
2023/11/10 03:47:25;;;;;;;15.80;10.10;;;;;;;7.92;78.39;97618.39;435315;1251;99699;-40
2023/11/10 03:57:28;;;;;;;10.60;6.10;;;;;;;7.92;78.32;97606.02;435349;1253;108141;-40
2023/11/10 04:07:32;;;;;;;8.10;5.20;;;;;;;7.93;78.69;97594.35;435295;1253;99215;-40
2023/11/10 04:17:36;;;;;;;10.30;6.30;;;;;;;7.96;78.98;97582.08;435570;1253;112545;-41
2023/11/10 04:37:43;;;;;;;11.00;5.80;;;;;;;7.90;79.19;97587.30;435497;1253;99728;-40
2023/11/10 04:57:53;;;;;;;11.20;7.70;;;;;;;7.77;79.40;97580.95;435373;1254;99093;-42
2023/11/10 05:07:57;;;;;;;13.60;8.60;;;;;;;7.60;79.54;97581.83;435476;1253;110751;-41
2023/11/10 05:18:00;;;;;;;16.50;11.40;;;;;;;7.52;79.56;97586.77;435387;1250;107196;-41
2023/11/10 05:28:04;;;;;;;15.10;6.40;;;;;;;7.52;79.70;97588.23;435396;1253;99236;-41
2023/11/10 05:38:08;;;;;;;23.80;9.00;;;;;;;7.53;80.01;97591.73;435310;1254;107698;-40
2023/11/10 05:48:11;;;;;;;23.10;8.70;;;;;;;7.50;80.19;97585.58;435489;1254;98495;-40
2023/11/10 05:58:15;;;;;;;13.10;7.20;;;;;;;7.50;80.50;97587.16;435378;1253;112079;-41
2023/11/10 06:08:20;;;;;;;10.50;7.10;;;;;;;7.62;80.71;97575.70;435416;1253;107205;-40
2023/11/10 06:18:25;;;;;;;15.40;7.50;;;;;;;7.76;80.76;97577.77;435368;1254;99321;-39
2023/11/10 06:28:29;;;;;;;11.20;6.80;;;;;;;7.86;80.87;97580.85;435344;1256;108508;-40
2023/11/10 06:38:37;;;;;;;13.50;7.50;;;;;;;7.88;80.86;97584.43;435352;1263;99266;-40
2023/11/10 06:48:40;;;;;;;11.00;5.80;;;;;;;7.95;80.74;97594.17;435223;1263;111596;-39
2023/11/10 06:58:44;;;;;;;17.60;6.70;;;;;;;8.08;80.69;97597.29;435302;1258;108780;-40
2023/11/10 07:08:48;;;;;;;12.20;7.20;;;;;;;8.21;80.80;97597.11;435191;1254;99221;-40
2023/11/10 07:18:52;;;;;;;20.80;10.70;;;;;;;8.34;80.86;97595.76;435303;1262;108466;-40
2023/11/10 07:29:02;;;;;;;12.40;7.70;;;;;;;8.49;80.78;97586.25;435546;1253;99202;-40
2023/11/10 07:39:06;;;;;;;11.30;7.50;;;;;;;8.75;80.78;97578.70;435410;1253;114024;-40
2023/11/10 07:49:11;;;;;;;14.10;8.00;;;;;;;8.93;80.69;97572.34;435413;1254;106930;-39
2023/11/10 07:59:15;;;;;;;10.90;6.70;;;;;;;9.21;80.56;97562.35;435424;1251;99208;-39
2023/11/10 08:09:21;;;;;;;14.90;6.70;;;;;;;10.18;80.73;97552.63;435422;1254;108237;-41
2023/11/10 08:19:24;;;;;;;12.10;6.00;;;;;;;11.34;79.82;97553.88;435382;1251;99400;-41
2023/11/10 08:39:59;;;;;;;10.20;6.60;;;;;;;10.91;77.29;97562.22;435321;1253;107555;-41
2023/11/10 08:50:18;;;;;;;9.20;5.90;;;;;;;10.58;77.01;97565.59;435337;1251;98804;-41
2023/11/10 09:10:25;;;;;;;14.10;7.40;;;;;;;10.35;76.48;97582.02;435251;1254;99616;-40
2023/11/10 09:30:33;;;;;;;11.20;6.20;;;;;;;10.36;76.26;97562.23;435426;1251;108429;-41
2023/11/10 09:40:39;;;;;;;7.10;5.50;;;;;;;10.65;75.69;97555.86;435582;1251;98570;-40
2023/11/10 09:50:59;;;;;;;12.90;6.90;;;;;;;10.99;75.18;97542.54;435481;1254;107543;-40
2023/11/10 10:01:18;;;;;;;10.60;6.80;;;;;;;11.16;74.84;97531.70;435403;1253;99107;-40
2023/11/10 10:11:25;;;;;;;12.10;5.50;;;;;;;11.26;74.32;97523.95;435413;1253;111025;-40
2023/11/10 10:41:47;;;;;;;9.30;6.10;;;;;;;11.51;72.47;97515.05;435541;1254;106822;-41
2023/11/10 11:01:54;;;;;;;11.70;6.90;;;;;;;11.47;72.18;97512.34;435549;1251;110695;-40
2023/11/10 11:32:25;;;;;;;14.40;6.10;;;;;;;11.30;70.84;97496.54;435357;1251;107620;-41
2023/11/10 11:52:37;;;;;;;12.90;7.10;;;;;;;11.12;70.45;97480.89;435739;1250;110726;-41
2023/11/10 12:53:09;;;;;;;18.70;9.90;;;;;;;10.70;71.05;97423.86;435470;1254;110312;-41
2023/11/10 13:23:56;;;;;;;8.70;5.90;;;;;;;10.52;70.78;97412.00;435589;1253;99247;-41
2023/11/10 13:34:01;;;;;;;17.60;8.10;;;;;;;10.48;71.02;97423.52;435565;1253;112562;-40
2023/11/10 13:44:05;;;;;;;23.00;8.90;;;;;;;10.40;71.09;97423.52;435377;1253;107394;-43
2023/11/10 14:04:12;;;;;;;9.10;5.40;;;;;;;10.21;71.23;97407.42;435481;1253;107948;-40
2023/11/10 14:14:16;;;;;;;14.80;7.80;;;;;;;10.11;70.82;97413.52;435707;1251;98821;-40
2023/11/10 14:24:20;;;;;;;20.10;10.00;;;;;;;9.92;70.87;97410.29;435599;1253;111245;-41
2023/11/10 14:34:29;;;;;;;20.10;9.70;;;;;;;9.74;71.44;97405.73;435600;1253;108578;-40
2023/11/10 14:44:33;;;;;;;11.00;5.90;;;;;;;9.57;71.61;97404.77;435429;1251;99211;-39
2023/11/10 14:54:37;;;;;;;13.80;8.00;;;;;;;9.37;71.74;97413.16;435544;1251;107902;-40
2023/11/10 15:04:42;;;;;;;23.70;12.70;;;;;;;9.08;72.25;97410.26;435553;1253;97917;-40
2023/11/10 15:14:45;;;;;;;29.90;14.60;;;;;;;8.78;72.60;97414.33;435678;1253;112746;-40
2023/11/10 15:24:51;;;;;;;19.40;10.70;;;;;;;8.53;73.13;97416.12;435491;1250;107250;-40
2023/11/10 15:34:55;;;;;;;21.70;11.20;;;;;;;8.44;73.52;97412.47;435529;1253;99234;-39
2023/11/10 15:44:58;;;;;;;29.60;15.60;;;;;;;8.28;73.96;97398.19;435682;1254;109689;-41
2023/11/10 15:55:02;;;;;;;42.80;20.40;;;;;;;8.09;74.66;97399.52;435613;1253;99221;-41
2023/11/10 16:15:08;;;;;;;53.30;26.50;;;;;;;7.83;75.96;97403.45;435631;1250;107948;-42
2023/11/10 16:25:11;;;;;;;42.60;24.50;;;;;;;7.77;76.40;97395.12;435519;1251;99359;-40
2023/11/10 16:35:15;;;;;;;46.30;26.30;;;;;;;7.76;76.97;97403.94;435498;1253;107924;-40
2023/11/10 16:45:18;;;;;;;66.70;33.50;;;;;;;7.74;77.50;97399.92;435455;1253;99250;-40
2023/11/10 17:05:29;;;;;;;56.30;29.70;;;;;;;7.62;78.24;97399.81;435473;1250;107929;-40
2023/11/10 17:15:36;;;;;;;62.80;30.50;;;;;;;7.66;78.63;97402.82;435437;1250;99365;-40
2023/11/10 17:25:40;;;;;;;38.70;20.90;;;;;;;7.76;78.89;97402.20;435416;1253;108772;-40
2023/11/10 17:35:43;;;;;;;47.30;25.50;;;;;;;7.80;79.33;97399.48;435592;1251;99198;-41
2023/11/10 17:45:49;;;;;;;54.70;28.30;;;;;;;7.74;79.51;97393.09;435640;1253;111693;-40
2023/11/10 18:05:57;;;;;;;26.30;14.20;;;;;;;7.78;79.94;97369.14;435525;1251;98431;-40
2023/11/10 18:16:00;;;;;;;32.70;19.50;;;;;;;7.81;80.20;97369.41;435443;1253;107906;-41
2023/11/10 18:26:04;;;;;;;34.30;21.20;;;;;;;7.88;80.45;97373.65;435434;1253;99695;-42
2023/11/10 18:36:09;;;;;;;48.20;26.00;;;;;;;7.93;80.83;97366.73;435576;1249;112007;-41
2023/11/10 18:46:13;;;;;;;75.80;40.90;;;;;;;7.88;81.06;97363.98;435476;1253;107186;-41
2023/11/10 18:56:20;;;;;;;44.90;28.60;;;;;;;7.86;81.14;97360.95;435589;1253;98001;-41
2023/11/10 19:06:27;;;;;;;40.40;24.40;;;;;;;7.90;81.41;97363.02;435581;1253;108844;-40
2023/11/10 19:16:31;;;;;;;41.10;25.40;;;;;;;8.02;81.71;97355.73;435522;1253;99221;-40
2023/11/10 19:26:35;;;;;;;36.10;23.40;;;;;;;8.12;81.88;97358.66;435397;1250;112767;-41
2023/11/10 19:36:38;;;;;;;39.50;25.30;;;;;;;8.19;82.09;97359.27;435507;1253;108172;-41
2023/11/10 19:46:43;;;;;;;37.70;22.80;;;;;;;8.20;82.27;97358.84;435399;1253;99234;-40
2023/11/10 19:56:47;;;;;;;38.40;22.50;;;;;;;8.22;82.22;97359.13;435513;1253;107370;-41
2023/11/10 20:06:54;;;;;;;36.70;21.10;;;;;;;8.29;82.42;97351.74;435423;1251;99340;-40
2023/11/10 20:16:58;;;;;;;30.00;17.70;;;;;;;8.36;82.59;97348.79;435446;1253;111967;-40
2023/11/10 20:27:02;;;;;;;23.30;15.00;;;;;;;8.39;82.89;97348.20;435675;1253;108253;-42
2023/11/10 20:37:06;;;;;;;34.70;17.60;;;;;;;8.41;83.16;97344.95;435477;1251;99410;-40
2023/11/10 20:47:10;;;;;;;29.20;16.50;;;;;;;8.45;83.02;97347.84;435533;1253;108612;-40
2023/11/10 20:57:13;;;;;;;29.40;16.00;;;;;;;8.40;82.87;97343.94;435412;1253;99253;-41
2023/11/10 21:07:17;;;;;;;32.90;18.70;;;;;;;8.38;83.04;97335.39;435509;1253;111759;-40
2023/11/10 21:17:21;;;;;;;29.70;18.10;;;;;;;8.39;83.20;97326.61;435252;1251;107695;-41
2023/11/10 21:27:25;;;;;;;35.30;20.40;;;;;;;8.40;83.37;97329.13;435695;1253;98005;-40
2023/11/10 21:37:31;;;;;;;33.60;19.60;;;;;;;8.38;83.52;97323.79;435659;1253;108290;-40
2023/11/10 21:47:35;;;;;;;26.50;16.20;;;;;;;8.32;83.41;97306.13;435482;1252;99225;-41
2023/11/10 21:57:40;;;;;;;26.60;16.70;;;;;;;8.27;83.52;97291.78;435471;1253;111745;-40
2023/11/10 22:07:47;;;;;;;25.80;14.60;;;;;;;8.28;83.54;97276.73;435471;1253;108526;-42
2023/11/10 22:17:51;;;;;;;27.60;16.80;;;;;;;8.25;83.68;97266.79;435480;1253;99311;-39
2023/11/10 22:27:56;;;;;;;34.00;21.60;;;;;;;8.22;83.87;97255.48;435524;1253;107474;-39
2023/11/10 22:38:03;;;;;;;37.40;24.30;;;;;;;8.10;84.07;97246.69;435339;1253;99237;-40
2023/11/10 22:48:07;;;;;;;33.40;21.60;;;;;;;8.08;84.06;97238.25;435550;1253;112958;-40
2023/11/10 22:58:11;;;;;;;36.90;21.60;;;;;;;8.07;84.07;97228.71;435425;1253;108456;-41
2023/11/10 23:08:15;;;;;;;39.60;24.40;;;;;;;8.15;84.20;97228.41;435383;1254;99237;-39
2023/11/10 23:18:21;;;;;;;46.40;26.90;;;;;;;8.15;84.52;97218.66;435301;1253;108661;-40
2023/11/10 23:28:26;;;;;;;40.30;27.80;;;;;;;8.08;84.43;97220.55;435515;1251;99510;-41
2023/11/10 23:38:44;;;;;;;36.30;24.50;;;;;;;8.02;84.35;97221.09;435349;1258;111264;-41
2023/11/10 23:58:53;;;;;;;43.60;26.40;;;;;;;8.08;84.71;97202.91;435505;1251;98830;-41
